Time;durP1;ratioP1;P1;durP2;ratioP2;P2;SDS_P1;SDS_P2;PMS_P1;PMS_P2;Temp;Humidity;BMP_temperature;BMP_pressure;BME280_temperature;BME280_humidity;BME280_pressure;Samples;Min_cycle;Max_cycle;Signal;HPM_P1;HPM_P2
2021/07/13 00:01:33;;;;;;;4.75;3.25;;;;;;;19.47;nan;99821.94;5016384;28;20042;-80
2021/07/13 00:03:58;;;;;;;4.70;2.95;;;;;;;19.45;nan;99821.34;5007141;28;20206;-80
2021/07/13 00:06:24;;;;;;;5.05;3.42;;;;;;;19.41;nan;99817.50;4999174;28;20033;-81
2021/07/13 00:08:51;;;;;;;4.68;3.00;;;;;;;19.37;nan;99822.47;5013698;28;20073;-81
2021/07/13 00:11:18;;;;;;;3.55;2.47;;;;;;;19.29;nan;99817.44;5015052;28;20531;-81
2021/07/13 00:13:43;;;;;;;3.28;2.10;;;;;;;19.28;nan;99813.97;5011406;28;20038;-79
2021/07/13 00:16:11;;;;;;;5.03;2.95;;;;;;;19.33;nan;99812.44;5019497;28;20405;-79
2021/07/13 00:18:37;;;;;;;5.28;3.15;;;;;;;19.33;nan;99817.81;5002730;28;20518;-79
2021/07/13 00:21:03;;;;;;;4.90;2.67;;;;;;;19.25;nan;99817.06;5007218;28;20034;-80
2021/07/13 00:23:29;;;;;;;4.90;2.67;;;;;;;19.23;nan;99823.69;5021005;28;20109;-80
2021/07/13 00:25:55;;;;;;;3.55;2.70;;;;;;;19.20;nan;99827.66;5015122;28;20553;-79
2021/07/13 00:28:20;;;;;;;4.50;2.90;;;;;;;19.19;nan;99828.72;5009531;28;20030;-79
2021/07/13 00:30:45;;;;;;;5.82;2.88;;;;;;;19.14;nan;99822.38;5003888;28;20036;-79
2021/07/13 00:33:11;;;;;;;4.55;2.40;;;;;;;19.14;nan;99817.84;5017733;28;20554;-78
2021/07/13 00:35:36;;;;;;;4.55;2.90;;;;;;;19.10;nan;99819.34;5002137;28;20407;-78
2021/07/13 00:38:02;;;;;;;3.45;2.60;;;;;;;19.05;nan;99820.00;5005482;28;20026;-78
2021/07/13 00:40:27;;;;;;;2.75;2.25;;;;;;;19.05;nan;99820.00;5016532;28;20499;-79
2021/07/13 00:42:53;;;;;;;3.63;2.70;;;;;;;19.04;nan;99806.81;5013442;28;20030;-78
2021/07/13 00:45:19;;;;;;;3.60;2.70;;;;;;;19.04;nan;99804.16;5014335;28;20061;-80
2021/07/13 00:47:49;;;;;;;3.78;2.80;;;;;;;19.02;nan;99790.16;5006269;28;20042;-79
2021/07/13 00:50:15;;;;;;;3.33;2.60;;;;;;;19.02;nan;99793.69;4998946;28;20113;-79
2021/07/13 00:52:40;;;;;;;3.38;2.70;;;;;;;19.03;nan;99792.63;5000160;28;20042;-79
2021/07/13 00:55:07;;;;;;;3.75;2.72;;;;;;;19.06;nan;99794.03;5012577;28;20037;-79
2021/07/13 00:57:33;;;;;;;2.55;1.80;;;;;;;19.07;nan;99790.31;5016973;28;20391;-79
2021/07/13 00:59:58;;;;;;;2.50;1.98;;;;;;;19.08;nan;99792.75;5000731;28;20045;-80
2021/07/13 01:02:24;;;;;;;2.65;2.05;;;;;;;19.12;nan;99792.31;5020109;28;20030;-79
2021/07/13 01:04:58;;;;;;;3.60;2.28;;;;;;;19.09;nan;99786.38;5022337;28;20033;-79
2021/07/13 01:08:23;;;;;;;3.13;2.20;;;;;;;19.07;nan;99788.44;5006058;28;20038;-79
2021/07/13 01:10:56;;;;;;;5.40;2.85;;;;;;;19.05;nan;99784.38;4956517;28;20048;-79
2021/07/13 01:13:31;;;;;;;4.93;3.38;;;;;;;19.04;nan;99786.22;4996864;28;20494;-78
2021/07/13 01:16:03;;;;;;;4.53;3.45;;;;;;;18.99;nan;99778.03;4996072;28;20042;-79
2021/07/13 01:18:35;;;;;;;4.57;3.00;;;;;;;18.99;nan;99769.19;5011329;28;20038;-78
2021/07/13 01:21:03;;;;;;;5.28;3.88;;;;;;;19.04;nan;99772.00;4999832;28;20043;-78
2021/07/13 01:23:42;;;;;;;6.13;3.92;;;;;;;19.01;nan;99767.09;4995776;28;20045;-80
2021/07/13 01:26:09;;;;;;;5.57;3.83;;;;;;;19.08;nan;99774.00;5010109;28;20590;-78
2021/07/13 01:28:46;;;;;;;7.40;4.28;;;;;;;19.09;nan;99774.81;5003043;28;20038;-79
2021/07/13 01:31:16;;;;;;;7.47;3.85;;;;;;;19.03;nan;99771.19;4994614;28;20070;-78
2021/07/13 01:33:48;;;;;;;4.50;3.42;;;;;;;18.96;nan;99781.16;5005825;28;20546;-78
2021/07/13 01:36:24;;;;;;;4.28;3.15;;;;;;;18.93;nan;99791.53;5007728;28;20046;-79
2021/07/13 01:38:52;;;;;;;4.80;3.20;;;;;;;18.92;nan;99797.91;4996449;28;20133;-79
2021/07/13 01:41:21;;;;;;;5.15;3.72;;;;;;;18.91;nan;99793.59;5014490;28;20041;-79
2021/07/13 01:43:47;;;;;;;4.95;3.00;;;;;;;18.91;nan;99777.53;5010441;28;20405;-79
2021/07/13 01:46:15;;;;;;;3.95;3.08;;;;;;;18.89;nan;99783.91;5013950;28;20048;-79
2021/07/13 01:48:42;;;;;;;4.68;3.25;;;;;;;18.92;nan;99779.97;5014344;28;20046;-81
2021/07/13 01:51:08;;;;;;;3.78;2.90;;;;;;;18.91;nan;99780.22;5014122;28;20033;-78
2021/07/13 01:53:35;;;;;;;4.50;2.67;;;;;;;18.93;nan;99792.34;5011869;28;20026;-78
2021/07/13 01:56:01;;;;;;;6.88;2.80;;;;;;;18.93;nan;99789.66;5009065;28;20666;-78
2021/07/13 01:58:29;;;;;;;3.97;2.85;;;;;;;18.94;nan;99780.56;5013712;28;20100;-79
2021/07/13 02:01:04;;;;;;;5.10;2.93;;;;;;;19.00;nan;99781.56;5007991;28;20038;-78
2021/07/13 02:03:31;;;;;;;4.47;3.20;;;;;;;18.99;nan;99767.31;5006744;28;20178;-78
2021/07/13 02:05:57;;;;;;;3.38;2.70;;;;;;;18.98;nan;99773.72;5007292;28;20070;-78
2021/07/13 02:08:24;;;;;;;4.43;2.90;;;;;;;18.98;nan;99767.56;4993152;28;20527;-79
2021/07/13 02:10:50;;;;;;;3.38;2.25;;;;;;;19.00;nan;99762.78;5005648;28;20045;-78
2021/07/13 02:13:16;;;;;;;3.72;2.75;;;;;;;19.03;nan;99762.34;5010600;28;20029;-78
2021/07/13 02:15:42;;;;;;;3.25;2.30;;;;;;;18.98;nan;99763.00;4995635;28;20092;-78
2021/07/13 02:18:07;;;;;;;4.63;3.13;;;;;;;19.04;nan;99772.00;5006821;28;20026;-78
2021/07/13 02:20:33;;;;;;;3.65;2.75;;;;;;;18.94;nan;99763.69;5012639;28;20395;-79
2021/07/13 02:22:59;;;;;;;3.60;2.30;;;;;;;18.93;nan;99757.50;5002824;28;20311;-79
2021/07/13 02:25:24;;;;;;;2.42;1.90;;;;;;;18.94;nan;99772.53;4997989;28;20253;-79
2021/07/13 02:28:13;;;;;;;2.50;2.08;;;;;;;18.93;nan;99768.22;5013352;28;20041;-79
2021/07/13 02:30:41;;;;;;;3.00;1.92;;;;;;;18.91;nan;99774.84;4996222;28;20042;-79
2021/07/13 02:33:15;;;;;;;3.22;2.42;;;;;;;18.89;nan;99783.09;5009945;28;20053;-79
2021/07/13 02:35:47;;;;;;;3.13;2.35;;;;;;;18.84;nan;99773.06;5003965;28;20145;-79
2021/07/13 02:38:13;;;;;;;4.78;2.60;;;;;;;18.80;nan;99774.53;4994375;28;20054;-79
2021/07/13 02:40:40;;;;;;;3.72;2.50;;;;;;;18.78;nan;99776.66;5009858;28;20061;-80
2021/07/13 02:43:07;;;;;;;3.22;2.50;;;;;;;18.78;nan;99776.66;5015053;28;20045;-79
2021/07/13 02:45:34;;;;;;;3.35;2.50;;;;;;;18.78;nan;99779.34;5003445;28;20037;-79
2021/07/13 02:48:01;;;;;;;2.75;2.13;;;;;;;18.80;nan;99781.75;5005944;28;20038;-80
2021/07/13 02:50:27;;;;;;;2.47;1.83;;;;;;;18.81;nan;99780.75;5005913;28;20503;-79
2021/07/13 02:52:54;;;;;;;3.42;2.17;;;;;;;18.80;nan;99779.91;5012247;28;20758;-78
2021/07/13 02:55:22;;;;;;;2.70;2.00;;;;;;;18.82;nan;99782.38;5008176;28;20074;-79
2021/07/13 02:57:50;;;;;;;2.03;1.50;;;;;;;18.85;nan;99787.25;5013269;28;20109;-81
2021/07/13 03:00:17;;;;;;;2.85;2.28;;;;;;;18.85;nan;99785.44;5012513;28;20048;-81
2021/07/13 03:02:46;;;;;;;3.88;2.38;;;;;;;18.82;nan;99785.84;5011990;28;20062;-81
2021/07/13 03:05:18;;;;;;;4.07;2.63;;;;;;;18.79;nan;99791.66;4999971;28;20523;-82
2021/07/13 03:07:45;;;;;;;4.30;3.30;;;;;;;18.81;nan;99786.09;4995968;28;20026;-81
2021/07/13 03:10:11;;;;;;;5.10;3.33;;;;;;;18.75;nan;99793.13;4997483;28;20034;-81
2021/07/13 03:12:37;;;;;;;4.00;2.90;;;;;;;18.74;nan;99786.13;5012102;28;20037;-81
2021/07/13 03:15:05;;;;;;;4.32;3.40;;;;;;;18.75;nan;99787.75;5029229;28;20033;-82
2021/07/13 03:17:31;;;;;;;4.93;3.15;;;;;;;18.71;nan;99780.41;5013724;28;20466;-82
2021/07/13 03:19:56;;;;;;;5.63;2.70;;;;;;;18.72;nan;99784.72;5022395;28;20042;-83
2021/07/13 03:22:26;;;;;;;5.28;2.80;;;;;;;18.72;nan;99779.38;5011470;28;20046;-82
2021/07/13 03:24:52;;;;;;;4.15;3.00;;;;;;;18.73;nan;99765.75;5002249;28;20037;-80
2021/07/13 03:27:21;;;;;;;4.45;2.72;;;;;;;18.72;nan;99756.06;5000334;28;20038;-80
2021/07/13 03:29:48;;;;;;;4.35;2.90;;;;;;;18.71;nan;99748.25;4999883;28;20038;-82
2021/07/13 03:32:15;;;;;;;4.15;3.17;;;;;;;18.69;nan;99745.81;4997782;28;20462;-82
2021/07/13 03:34:42;;;;;;;5.25;3.97;;;;;;;18.74;nan;99737.94;5007199;28;20038;-82
2021/07/13 03:37:08;;;;;;;5.28;3.90;;;;;;;18.74;nan;99729.91;5001750;28;20030;-82
2021/07/13 03:39:34;;;;;;;5.22;3.75;;;;;;;18.74;nan;99729.91;4995779;28;20058;-82
2021/07/13 03:42:01;;;;;;;5.38;3.72;;;;;;;18.73;nan;99722.06;5012977;28;20034;-82
2021/07/13 03:44:26;;;;;;;5.35;3.20;;;;;;;18.72;nan;99718.59;4998665;28;20136;-82
2021/07/13 03:46:52;;;;;;;3.72;3.03;;;;;;;18.72;nan;99713.22;5007542;28;20038;-82
2021/07/13 03:49:21;;;;;;;5.38;2.95;;;;;;;18.75;nan;99707.41;5021808;28;20045;-82
2021/07/13 03:51:47;;;;;;;5.53;3.33;;;;;;;18.81;nan;99706.56;4996606;28;20273;-82
2021/07/13 03:54:14;;;;;;;6.40;4.63;;;;;;;18.87;nan;99710.19;5001151;28;20042;-81
2021/07/13 03:56:40;;;;;;;8.63;5.00;;;;;;;18.88;nan;99704.59;5012292;28;20061;-82
2021/07/13 03:59:07;;;;;;;7.30;5.28;;;;;;;18.81;nan;99700.38;5033038;28;20513;-84
2021/07/13 04:01:32;;;;;;;8.18;4.85;;;;;;;18.79;nan;99697.94;5005052;28;20034;-81
2021/07/13 04:03:58;;;;;;;7.22;4.57;;;;;;;18.76;nan;99689.47;5010944;28;20470;-82
2021/07/13 04:06:23;;;;;;;6.65;4.47;;;;;;;18.71;nan;99687.50;5006644;28;20038;-80
2021/07/13 04:08:49;;;;;;;5.47;3.90;;;;;;;18.71;nan;99679.47;4998656;28;20121;-81
2021/07/13 04:11:14;;;;;;;4.88;3.53;;;;;;;18.66;nan;99671.28;5012021;28;20042;-81
2021/07/13 04:13:39;;;;;;;6.63;4.47;;;;;;;18.71;nan;99660.72;5011393;28;20043;-82
2021/07/13 04:16:05;;;;;;;6.15;4.28;;;;;;;18.67;nan;99657.66;5012538;28;20117;-82
2021/07/13 04:18:30;;;;;;;6.03;4.45;;;;;;;18.73;nan;99650.56;5009612;28;20042;-82
2021/07/13 04:20:55;;;;;;;6.30;4.40;;;;;;;18.74;nan;99654.91;5006951;28;20510;-82
2021/07/13 04:23:21;;;;;;;6.78;4.40;;;;;;;18.72;nan;99646.28;4998135;28;20507;-82
2021/07/13 04:25:47;;;;;;;6.45;4.30;;;;;;;18.72;nan;99640.91;4995088;28;20085;-82
2021/07/13 04:28:12;;;;;;;6.25;4.20;;;;;;;18.71;nan;99636.63;4991985;28;20038;-82
2021/07/13 04:30:38;;;;;;;6.57;4.50;;;;;;;18.72;nan;99632.88;4997675;28;20184;-82
2021/07/13 04:33:03;;;;;;;6.90;5.00;;;;;;;18.70;nan;99629.63;5013333;28;20085;-82
2021/07/13 04:35:29;;;;;;;8.73;6.32;;;;;;;18.70;nan;99632.28;5011202;28;20069;-82
2021/07/13 04:37:54;;;;;;;7.72;5.72;;;;;;;18.71;nan;99625.06;5005051;28;20038;-82
2021/07/13 04:40:20;;;;;;;7.60;5.80;;;;;;;18.66;nan;99621.22;5012757;28;20041;-83
2021/07/13 04:42:45;;;;;;;8.13;6.25;;;;;;;18.67;nan;99622.84;5005815;28;20044;-82
2021/07/13 04:45:11;;;;;;;7.40;6.30;;;;;;;18.68;nan;99619.13;4997611;28;20038;-82
2021/07/13 04:47:37;;;;;;;6.13;5.03;;;;;;;18.71;nan;99611.69;5008025;28;20294;-81
2021/07/13 04:50:07;;;;;;;6.55;5.50;;;;;;;18.72;nan;99603.44;5007486;28;20041;-82
2021/07/13 04:52:33;;;;;;;6.80;5.27;;;;;;;18.72;nan;99598.06;5002659;28;20122;-82
2021/07/13 04:54:59;;;;;;;9.30;7.13;;;;;;;18.72;nan;99592.72;5005588;28;20061;-83
2021/07/13 04:57:24;;;;;;;10.27;7.55;;;;;;;18.72;nan;99591.91;5013320;28;20514;-83
2021/07/13 04:59:49;;;;;;;10.25;8.25;;;;;;;18.69;nan;99601.22;5008630;28;20045;-83
2021/07/13 05:02:15;;;;;;;9.63;7.63;;;;;;;18.68;nan;99608.41;5001414;28;20045;-83
2021/07/13 05:04:40;;;;;;;10.07;7.95;;;;;;;18.69;nan;99617.28;5010548;28;20054;-83
2021/07/13 05:07:06;;;;;;;8.10;6.45;;;;;;;18.73;nan;99613.09;4997072;28;20042;-82
2021/07/13 05:09:31;;;;;;;7.30;5.85;;;;;;;18.74;nan;99613.94;5011270;28;20565;-82
2021/07/13 05:11:56;;;;;;;7.78;6.03;;;;;;;18.73;nan;99606.91;5007105;28;20589;-82
2021/07/13 05:14:21;;;;;;;6.40;4.93;;;;;;;18.78;nan;99604.41;5006965;28;20031;-82
2021/07/13 05:16:47;;;;;;;4.75;4.25;;;;;;;18.78;nan;99602.56;5006918;28;20041;-80
2021/07/13 05:19:14;;;;;;;4.53;4.03;;;;;;;18.84;nan;99611.53;5016011;28;20034;-83
2021/07/13 05:21:41;;;;;;;6.80;5.68;;;;;;;18.83;nan;99616.09;5010266;28;20046;-83
2021/07/13 05:24:07;;;;;;;5.80;5.20;;;;;;;18.85;nan;99610.47;4996546;28;20038;-83
2021/07/13 05:26:42;;;;;;;5.05;4.40;;;;;;;18.87;nan;99609.19;4998531;28;20035;-82
2021/07/13 05:29:07;;;;;;;5.10;4.50;;;;;;;18.91;nan;99614.94;4994537;28;20121;-80
2021/07/13 05:31:33;;;;;;;4.80;4.10;;;;;;;18.96;nan;99620.41;5003115;28;20495;-80
2021/07/13 05:33:59;;;;;;;4.25;3.28;;;;;;;19.05;nan;99616.38;5021286;28;20375;-80
2021/07/13 05:36:25;;;;;;;6.25;5.03;;;;;;;19.06;nan;99630.56;5017195;28;20398;-80
2021/07/13 05:38:53;;;;;;;7.60;6.10;;;;;;;19.07;nan;99634.91;5015932;28;20049;-80
2021/07/13 05:41:19;;;;;;;6.72;5.55;;;;;;;19.10;nan;99632.56;5007433;28;20030;-81
2021/07/13 05:43:44;;;;;;;5.82;5.10;;;;;;;19.20;nan;99639.22;5011958;28;20140;-81
2021/07/13 05:46:10;;;;;;;10.25;5.95;;;;;;;19.25;nan;99632.13;5011532;28;20506;-81
2021/07/13 05:48:35;;;;;;;8.18;5.25;;;;;;;19.32;nan;99634.69;5008698;28;20486;-80
2021/07/13 05:51:00;;;;;;;7.60;5.18;;;;;;;19.34;nan;99632.63;5001184;28;20054;-81
2021/07/13 05:53:26;;;;;;;6.60;5.55;;;;;;;19.41;nan;99632.50;5003933;28;20034;-81
2021/07/13 05:55:51;;;;;;;9.82;7.55;;;;;;;19.39;nan;99626.56;5014456;28;20569;-82
2021/07/13 05:58:20;;;;;;;7.63;6.78;;;;;;;19.40;nan;99636.22;5014990;28;20320;-82
2021/07/13 06:00:48;;;;;;;12.57;7.88;;;;;;;19.39;nan;99635.41;5013647;28;20042;-82
2021/07/13 06:03:14;;;;;;;7.65;6.78;;;;;;;19.42;nan;99634.94;5014193;28;20398;-81
2021/07/13 06:05:39;;;;;;;8.80;7.53;;;;;;;19.49;nan;99635.66;5012444;28;20065;-81
2021/07/13 06:08:05;;;;;;;7.78;6.88;;;;;;;19.55;nan;99650.00;5010197;28;20462;-81
2021/07/13 06:10:30;;;;;;;6.93;5.82;;;;;;;19.65;nan;99649.44;5012695;28;20065;-81
2021/07/13 06:12:56;;;;;;;6.40;5.65;;;;;;;19.70;nan;99639.66;5013940;28;20030;-81
2021/07/13 06:15:21;;;;;;;9.45;7.55;;;;;;;19.80;nan;99649.00;5014198;28;20117;-81
2021/07/13 06:17:46;;;;;;;13.15;8.45;;;;;;;19.81;nan;99645.28;5014797;28;20169;-81
2021/07/13 06:20:12;;;;;;;8.82;7.47;;;;;;;19.80;nan;99639.06;5023721;28;20037;-82
2021/07/13 06:22:38;;;;;;;10.68;8.00;;;;;;;19.78;nan;99645.72;5007802;28;20037;-82
2021/07/13 06:25:05;;;;;;;10.88;7.97;;;;;;;19.71;nan;99649.34;5010030;28;20037;-82
2021/07/13 06:27:30;;;;;;;10.48;8.27;;;;;;;19.62;nan;99649.91;5015784;28;20031;-82
2021/07/13 06:29:56;;;;;;;8.35;7.03;;;;;;;19.59;nan;99650.34;5015875;28;20328;-82
2021/07/13 06:32:21;;;;;;;10.98;8.55;;;;;;;19.52;nan;99643.25;5014231;28;20109;-82
2021/07/13 06:34:46;;;;;;;12.43;9.20;;;;;;;19.51;nan;99651.50;5006204;28;20576;-81
2021/07/13 06:37:12;;;;;;;11.10;8.43;;;;;;;19.47;nan;99650.34;5016242;28;20058;-82
2021/07/13 06:39:37;;;;;;;8.23;7.25;;;;;;;19.57;nan;99661.31;5017309;28;20120;-78
2021/07/13 06:42:02;;;;;;;10.65;7.57;;;;;;;19.70;nan;99652.25;5014909;28;20029;-80
2021/07/13 06:44:28;;;;;;;9.48;7.40;;;;;;;19.84;nan;99652.84;5004976;28;20041;-80
2021/07/13 06:46:53;;;;;;;9.25;7.47;;;;;;;19.90;nan;99658.09;5009806;28;20042;-80
2021/07/13 06:49:18;;;;;;;10.50;8.10;;;;;;;19.87;nan;99657.72;5015778;28;20041;-79
2021/07/13 06:51:44;;;;;;;8.15;6.90;;;;;;;19.91;nan;99662.41;5010466;28;20187;-79
2021/07/13 06:54:09;;;;;;;9.48;7.22;;;;;;;19.91;nan;99667.75;5016216;28;20049;-80
2021/07/13 06:56:34;;;;;;;8.93;7.20;;;;;;;19.84;nan;99671.63;4999871;28;20034;-80
2021/07/13 06:58:59;;;;;;;8.43;7.35;;;;;;;19.79;nan;99669.63;5001134;28;20065;-79
2021/07/13 07:01:25;;;;;;;8.63;7.05;;;;;;;19.77;nan;99669.06;5016065;28;20065;-80
2021/07/13 07:03:50;;;;;;;8.85;7.57;;;;;;;19.76;nan;99669.28;5016022;28;20041;-80
2021/07/13 07:06:16;;;;;;;7.55;6.63;;;;;;;19.78;nan;99662.63;5030579;28;20498;-80
2021/07/13 07:08:41;;;;;;;8.43;7.53;;;;;;;19.70;nan;99662.97;5015315;28;20038;-80
2021/07/13 07:11:06;;;;;;;8.95;7.20;;;;;;;19.71;nan;99667.28;5013658;28;20025;-80
2021/07/13 07:13:32;;;;;;;8.32;6.75;;;;;;;19.73;nan;99667.88;5014752;28;20030;-80
2021/07/13 07:15:57;;;;;;;10.82;8.00;;;;;;;19.72;nan;99666.25;5015924;28;20034;-81
2021/07/13 07:18:22;;;;;;;10.10;8.38;;;;;;;19.69;nan;99664.06;5013307;28;20123;-80
2021/07/13 07:20:48;;;;;;;8.30;6.82;;;;;;;19.70;nan;99658.44;5014510;28;20037;-80
2021/07/13 07:23:13;;;;;;;12.43;8.13;;;;;;;19.70;nan;99655.75;5015275;28;20108;-80
2021/07/13 07:25:38;;;;;;;10.25;8.13;;;;;;;19.67;nan;99653.50;5001603;28;20050;-80
2021/07/13 07:28:04;;;;;;;8.45;6.70;;;;;;;19.75;nan;99647.00;5010125;28;20088;-80
2021/07/13 07:30:30;;;;;;;7.38;6.13;;;;;;;19.80;nan;99660.53;5025512;28;20068;-80
2021/07/13 07:32:58;;;;;;;10.13;7.68;;;;;;;19.79;nan;99658.91;5016521;28;20034;-81
2021/07/13 07:35:24;;;;;;;8.40;7.30;;;;;;;19.80;nan;99673.13;5012068;28;20026;-80
2021/07/13 07:37:50;;;;;;;10.30;7.50;;;;;;;19.69;nan;99670.22;5012439;28;20049;-81
2021/07/13 07:40:19;;;;;;;6.35;5.53;;;;;;;19.68;nan;99668.56;4997086;28;20046;-80
2021/07/13 07:42:47;;;;;;;6.43;5.78;;;;;;;19.75;nan;99664.97;5005936;28;20094;-81
2021/07/13 07:45:13;;;;;;;7.20;4.50;;;;;;;19.83;nan;99667.28;5016799;28;20068;-81
2021/07/13 07:47:38;;;;;;;5.30;4.45;;;;;;;19.88;nan;99665.56;5017018;28;20038;-80
2021/07/13 07:50:05;;;;;;;8.02;6.90;;;;;;;19.87;nan;99661.22;5017892;28;20068;-80
2021/07/13 07:52:30;;;;;;;8.98;7.70;;;;;;;19.78;nan;99669.88;5020372;28;20034;-80
2021/07/13 07:54:59;;;;;;;9.18;7.20;;;;;;;19.72;nan;99669.75;5023701;28;20057;-79
2021/07/13 07:57:25;;;;;;;7.07;6.20;;;;;;;19.70;nan;99671.84;5006937;28;20034;-80
2021/07/13 07:59:50;;;;;;;8.05;6.75;;;;;;;19.61;nan;99673.19;5001509;28;20049;-80
2021/07/13 08:02:16;;;;;;;5.85;5.10;;;;;;;19.61;nan;99673.19;5012770;28;20164;-80
2021/07/13 08:04:42;;;;;;;9.43;6.93;;;;;;;19.51;nan;99679.13;5015516;28;20100;-80
2021/07/13 08:07:07;;;;;;;9.10;7.07;;;;;;;19.48;nan;99679.63;5000009;28;20035;-80
2021/07/13 08:09:32;;;;;;;7.47;5.60;;;;;;;19.51;nan;99675.66;4997041;28;20062;-79
2021/07/13 08:11:58;;;;;;;8.38;6.85;;;;;;;19.51;nan;99670.28;5009369;28;20612;-79
2021/07/13 08:14:23;;;;;;;8.23;6.57;;;;;;;19.53;nan;99670.88;4998036;28;20038;-79
2021/07/13 08:16:49;;;;;;;10.48;8.18;;;;;;;19.48;nan;99663.53;4996852;28;20495;-79
2021/07/13 08:19:15;;;;;;;9.35;7.88;;;;;;;19.47;nan;99664.59;4996901;28;20062;-79
2021/07/13 08:21:41;;;;;;;10.45;8.80;;;;;;;19.45;nan;99664.00;4996238;28;20156;-79
2021/07/13 08:24:08;;;;;;;10.20;8.15;;;;;;;19.47;nan;99671.78;4993442;28;20034;-79
2021/07/13 08:26:33;;;;;;;10.77;8.43;;;;;;;19.48;nan;99684.16;5003247;28;20032;-79
2021/07/13 08:28:59;;;;;;;7.23;6.10;;;;;;;19.51;nan;99687.19;5014888;28;20038;-79
2021/07/13 08:31:24;;;;;;;6.80;6.13;;;;;;;19.55;nan;99684.88;5010273;28;20031;-79
2021/07/13 08:33:49;;;;;;;9.85;8.45;;;;;;;19.50;nan;99682.88;5011806;28;20081;-79
2021/07/13 08:36:15;;;;;;;11.23;8.10;;;;;;;19.48;nan;99684.16;5010588;28;20061;-79
2021/07/13 08:38:40;;;;;;;9.15;7.75;;;;;;;19.48;nan;99678.81;4999597;28;20529;-79
2021/07/13 08:41:05;;;;;;;9.95;8.48;;;;;;;19.38;nan;99683.88;5005234;28;20038;-80
2021/07/13 08:43:32;;;;;;;8.43;7.18;;;;;;;19.38;nan;99679.38;4998083;28;20035;-79
2021/07/13 08:45:57;;;;;;;9.23;8.02;;;;;;;19.35;nan;99677.13;5003334;28;20030;-79
2021/07/13 08:48:24;;;;;;;8.77;7.75;;;;;;;19.36;nan;99683.31;5017768;28;20046;-80
2021/07/13 08:50:56;;;;;;;8.20;6.90;;;;;;;19.33;nan;99689.13;5004874;28;20121;-78
2021/07/13 08:53:22;;;;;;;9.48;8.10;;;;;;;19.31;nan;99682.16;5007405;28;20041;-78
2021/07/13 08:55:47;;;;;;;9.18;8.15;;;;;;;19.27;nan;99678.28;5021747;28;20030;-79
2021/07/13 08:58:14;;;;;;;9.27;7.97;;;;;;;19.27;nan;99694.38;5021206;28;20394;-79
2021/07/13 09:00:40;;;;;;;9.27;8.00;;;;;;;19.28;nan;99689.81;5023826;28;20076;-79
2021/07/13 09:03:14;;;;;;;8.73;7.78;;;;;;;19.29;nan;99692.28;5025100;28;20040;-79
2021/07/13 09:05:45;;;;;;;10.18;8.15;;;;;;;19.31;nan;99692.06;5041478;28;20049;-78
2021/07/13 09:08:12;;;;;;;11.65;9.82;;;;;;;19.30;nan;99693.91;5025042;28;20099;-78
2021/07/13 09:10:37;;;;;;;10.23;8.38;;;;;;;19.24;nan;99697.50;5027062;28;20037;-78
2021/07/13 09:13:03;;;;;;;8.02;7.20;;;;;;;19.19;nan;99697.38;5026956;28;20022;-78
2021/07/13 09:15:28;;;;;;;7.60;6.80;;;;;;;19.22;nan;99685.38;5027984;28;20038;-79
2021/07/13 09:17:53;;;;;;;8.50;7.53;;;;;;;19.29;nan;99694.16;5029385;28;20034;-79
2021/07/13 09:20:31;;;;;;;10.68;8.55;;;;;;;19.29;nan;99681.56;5026182;28;20045;-79
2021/07/13 09:23:06;;;;;;;10.35;9.20;;;;;;;19.33;nan;99687.28;5025103;28;20129;-80
2021/07/13 09:25:31;;;;;;;9.10;7.75;;;;;;;19.38;nan;99678.53;5042212;28;20064;-79
2021/07/13 09:28:18;;;;;;;9.32;7.90;;;;;;;19.46;nan;99678.22;5024533;28;20034;-79
2021/07/13 09:30:47;;;;;;;9.13;7.78;;;;;;;19.55;nan;99668.78;5024367;28;20030;-79
2021/07/13 09:33:29;;;;;;;10.85;9.00;;;;;;;19.70;nan;99668.34;5025783;28;20172;-79
2021/07/13 09:35:59;;;;;;;10.15;9.05;;;;;;;19.79;nan;99668.84;5025059;28;20030;-79
2021/07/13 09:38:26;;;;;;;11.63;8.83;;;;;;;19.88;nan;99673.59;5024129;28;20064;-79
2021/07/13 09:41:24;;;;;;;9.50;8.20;;;;;;;20.05;nan;99673.72;5024310;28;20034;-79
2021/07/13 09:43:54;;;;;;;9.45;8.13;;;;;;;20.12;nan;99679.78;5039300;28;20045;-79
2021/07/13 09:46:39;;;;;;;10.93;9.00;;;;;;;20.13;nan;99685.94;5023497;28;20041;-79
2021/07/13 09:49:20;;;;;;;10.93;9.82;;;;;;;20.15;nan;99694.59;5023113;28;20042;-80
2021/07/13 09:51:54;;;;;;;11.75;10.50;;;;;;;20.14;nan;99693.78;5024361;28;20034;-79
2021/07/13 09:54:28;;;;;;;9.18;8.27;;;;;;;20.07;nan;99689.56;5020659;28;20115;-80
2021/07/13 09:56:53;;;;;;;11.48;9.73;;;;;;;20.13;nan;99680.59;5020824;28;20044;-80
2021/07/13 09:59:18;;;;;;;9.38;8.45;;;;;;;20.12;nan;99685.16;5020766;28;20113;-80
2021/07/13 10:01:44;;;;;;;10.38;9.27;;;;;;;20.13;nan;99692.13;5021039;28;20034;-80
2021/07/13 10:04:10;;;;;;;9.40;8.38;;;;;;;20.24;nan;99681.63;5020421;28;20034;-80
2021/07/13 10:06:36;;;;;;;10.52;9.23;;;;;;;20.28;nan;99682.78;5021807;28;20326;-80
2021/07/13 10:09:07;;;;;;;11.07;8.18;;;;;;;20.39;nan;99668.50;5020897;28;20042;-80
2021/07/13 10:11:33;;;;;;;9.60;8.35;;;;;;;20.50;nan;99669.56;5011243;28;20168;-80
2021/07/13 10:13:59;;;;;;;10.90;9.48;;;;;;;20.51;nan;99663.94;5035329;28;20069;-80
2021/07/13 10:16:24;;;;;;;10.13;9.02;;;;;;;20.61;nan;99666.03;5019534;28;20038;-80
2021/07/13 10:18:50;;;;;;;10.80;8.65;;;;;;;20.61;nan;99671.41;5020887;28;20076;-80
2021/07/13 10:21:17;;;;;;;7.57;6.75;;;;;;;20.64;nan;99662.03;5020661;28;20030;-80
2021/07/13 10:23:44;;;;;;;7.38;6.68;;;;;;;20.65;nan;99664.50;5019384;28;20037;-80
2021/07/13 10:26:11;;;;;;;11.48;7.40;;;;;;;20.66;nan;99670.69;5019405;28;20034;-79
2021/07/13 10:28:37;;;;;;;10.02;8.35;;;;;;;20.66;nan;99671.50;5019879;28;20046;-80
2021/07/13 10:31:03;;;;;;;11.93;9.25;;;;;;;20.45;nan;99693.59;5021631;28;20030;-80
2021/07/13 10:33:35;;;;;;;10.55;8.82;;;;;;;20.40;nan;99715.78;5021424;28;20304;-79
2021/07/13 10:36:26;;;;;;;1.60;1.20;;;;;;;19.57;nan;99706.06;5019936;28;20034;-80
2021/07/13 10:39:30;;;;;;;1.70;0.50;;;;;;;18.89;nan;99734.88;5006495;28;20046;-79
2021/07/13 10:41:58;;;;;;;0.30;0.30;;;;;;;18.33;nan;99726.03;5014420;28;20392;-77
2021/07/13 10:44:43;;;;;;;0.88;0.40;;;;;;;17.99;nan;99725.53;4997891;28;20045;-76
2021/07/13 10:47:22;;;;;;;0.57;0.40;;;;;;;17.44;nan;99729.84;5017432;28;20030;-78
2021/07/13 10:49:47;;;;;;;1.50;0.30;;;;;;;17.04;nan;99746.13;5037506;28;20045;-81
2021/07/13 10:52:51;;;;;;;0.38;0.30;;;;;;;16.82;nan;99745.59;5017377;28;20034;-82
2021/07/13 10:55:32;;;;;;;1.35;0.63;;;;;;;16.49;nan;99758.03;5006861;28;20069;-81
2021/07/13 10:58:09;;;;;;;0.50;0.30;;;;;;;16.34;nan;99774.25;5017747;28;20109;-83
2021/07/13 11:00:59;;;;;;;1.33;0.40;;;;;;;16.23;nan;99774.91;5014610;28;20504;-80
2021/07/13 11:03:27;;;;;;;0.43;0.30;;;;;;;16.13;nan;99775.28;5014475;28;20038;-82
2021/07/13 11:06:01;;;;;;;1.05;0.30;;;;;;;16.07;nan;99794.00;5016361;28;20062;-81
2021/07/13 11:08:42;;;;;;;0.88;0.40;;;;;;;15.99;nan;99797.66;5020105;28;20053;-80
2021/07/13 11:11:09;;;;;;;1.50;0.40;;;;;;;15.89;nan;99803.41;5019587;28;20528;-79
2021/07/13 11:13:35;;;;;;;0.22;0.22;;;;;;;15.85;nan;99812.00;5006460;28;20042;-81
2021/07/13 11:16:01;;;;;;;0.30;0.30;;;;;;;15.91;nan;99813.88;4999404;28;20034;-81
2021/07/13 11:18:27;;;;;;;0.60;0.40;;;;;;;15.86;nan;99811.00;4994412;28;20030;-80
2021/07/13 11:20:53;;;;;;;1.58;0.30;;;;;;;15.87;nan;99808.13;4996768;28;20034;-83
2021/07/13 11:23:27;;;;;;;1.02;0.40;;;;;;;15.83;nan;99801.56;5002690;28;20680;-83
2021/07/13 11:26:06;;;;;;;0.77;0.40;;;;;;;15.76;nan;99805.25;5014676;28;20091;-82
2021/07/13 11:28:32;;;;;;;0.73;0.40;;;;;;;15.72;nan;99807.50;5007612;28;20423;-81
2021/07/13 11:31:07;;;;;;;0.30;0.30;;;;;;;15.76;nan;99806.06;4995720;28;20030;-80
2021/07/13 11:33:33;;;;;;;0.63;0.40;;;;;;;15.76;nan;99800.75;5004065;28;20022;-83
2021/07/13 11:36:00;;;;;;;1.13;0.30;;;;;;;15.88;nan;99809.75;5013475;28;20050;-81
2021/07/13 11:38:31;;;;;;;1.58;0.50;;;;;;;15.87;nan;99799.28;5008952;28;20065;-80
2021/07/13 11:41:16;;;;;;;0.70;0.40;;;;;;;15.82;nan;99809.75;4998348;28;20035;-80
2021/07/13 11:43:42;;;;;;;0.40;0.40;;;;;;;15.86;nan;99825.16;4998736;28;20049;-82
2021/07/13 11:46:11;;;;;;;1.33;0.50;;;;;;;15.78;nan;99825.34;4997507;28;20034;-80
2021/07/13 11:48:40;;;;;;;0.80;0.50;;;;;;;15.80;nan;99827.78;5002472;28;20042;-79
2021/07/13 11:51:08;;;;;;;0.40;0.32;;;;;;;15.76;nan;99824.72;5017170;28;20057;-84
2021/07/13 11:53:34;;;;;;;0.45;0.40;;;;;;;15.73;nan;99830.47;5019158;28;20483;-83